Observation data for Abernathy on 01/20/2019      Previous  Date  Next       Current Mesonet Observations  Soil Data  Daily Summary Page  Observations in Plain Language
KARS 200600Z 16006KT M03/M06 A3029 RMK A01 T10261060  RH  078%=      5-min Rain = 0
KARS 200605Z 16007KT M03/M06 A3029 RMK A01 T10251058  RH  078%=      5-min Rain = 0
KARS 200610Z 16007KT M03/M06 A3029 RMK A01 T10261059  RH  078%=      5-min Rain = 0
KARS 200615Z 16007KT M02/M06 A3029 RMK A01 T10241057  RH  078%=      5-min Rain = 0
KARS 200620Z 16007KT M02/M06 A3029 RMK A01 T10211057  RH  077%=      5-min Rain = 0
KARS 200625Z 17006KT M02/M06 A3029 RMK A01 T10201056  RH  077%=      5-min Rain = 0
KARS 200630Z 16006KT M02/M06 A3029 RMK A01 T10211056  RH  077%=      5-min Rain = 0
KARS 200635Z 16006KT M02/M06 A3029 RMK A01 T10231057  RH  078%=      5-min Rain = 0
KARS 200640Z 16006KT M02/M06 A3029 RMK A01 T10241058  RH  078%=      5-min Rain = 0
KARS 200645Z 17007KT M02/M06 A3029 RMK A01 T10241058  RH  078%=      5-min Rain = 0
KARS 200650Z 17006KT M03/M06 A3029 RMK A01 T10261057  RH  079%=      5-min Rain = 0
KARS 200655Z 17007KT M03/M06 A3028 RMK A01 T10291059  RH  080%=      5-min Rain = 0
KARS 200700Z 16007KT M03/M06 A3028 RMK A01 T10261056  RH  080%=      5-min Rain = 0
KARS 200705Z 16007KT M02/M06 A3028 RMK A01 T10221055  RH  078%=      5-min Rain = 0
KARS 200710Z 16007KT M02/M06 A3028 RMK A01 T10231056  RH  078%=      5-min Rain = 0
KARS 200715Z 16007KT M03/M06 A3028 RMK A01 T10251057  RH  079%=      5-min Rain = 0
KARS 200720Z 17007KT M03/M06 A3028 RMK A01 T10251056  RH  080%=      5-min Rain = 0
KARS 200725Z 17007KT M03/M06 A3028 RMK A01 T10251055  RH  080%=      5-min Rain = 0
KARS 200730Z 18007KT M03/M06 A3028 RMK A01 T10271057  RH  080%=      5-min Rain = 0
KARS 200735Z 17007KT M03/M06 A3028 RMK A01 T10301057  RH  082%=      5-min Rain = 0
KARS 200740Z 17006KT M03/M06 A3028 RMK A01 T10281056  RH  081%=      5-min Rain = 0
KARS 200745Z 17007KT M03/M06 A3028 RMK A01 T10271056  RH  081%=      5-min Rain = 0
KARS 200750Z 18007KT M03/M06 A3029 RMK A01 T10291057  RH  081%=      5-min Rain = 0
KARS 200755Z 18007KT M03/M06 A3029 RMK A01 T10301057  RH  082%=      5-min Rain = 0
KARS 200800Z 17007KT M03/M06 A3029 RMK A01 T10301057  RH  082%=      5-min Rain = 0
KARS 200805Z 17007KT M03/M06 A3029 RMK A01 T10291056  RH  082%=      5-min Rain = 0
KARS 200810Z 17007KT M03/M06 A3028 RMK A01 T10281056  RH  081%=      5-min Rain = 0
KARS 200815Z 17008KT M03/M06 A3028 RMK A01 T10291056  RH  082%=      5-min Rain = 0
KARS 200820Z 17006KT M03/M06 A3028 RMK A01 T10311057  RH  083%=      5-min Rain = 0
KARS 200825Z 17006KT M03/M06 A3028 RMK A01 T10331058  RH  083%=      5-min Rain = 0
KARS 200830Z 17006KT M04/M06 A3029 RMK A01 T10361059  RH  084%=      5-min Rain = 0
KARS 200835Z 17006KT M04/M06 A3028 RMK A01 T10361059  RH  084%=      5-min Rain = 0
KARS 200840Z 17006KT M04/M06 A3029 RMK A01 T10361059  RH  084%=      5-min Rain = 0
KARS 200845Z 17006KT M04/M06 A3029 RMK A01 T10361059  RH  085%=      5-min Rain = 0
KARS 200850Z 17006KT M04/M06 A3029 RMK A01 T10371059  RH  085%=      5-min Rain = 0
KARS 200855Z 17006KT M04/M06 A3029 RMK A01 T10361059  RH  084%=      5-min Rain = 0
KARS 200900Z 17007KT M03/M06 A3029 RMK A01 T10341059  RH  083%=      5-min Rain = 0
KARS 200905Z 17007KT M03/M06 A3029 RMK A01 T10341060  RH  082%=      5-min Rain = 0
KARS 200910Z 18006KT M04/M06 A3029 RMK A01 T10361061  RH  083%=      5-min Rain = 0
KARS 200915Z 18006KT M04/M06 A3029 RMK A01 T10391063  RH  084%=      5-min Rain = 0
KARS 200920Z 18006KT M04/M06 A3029 RMK A01 T10421064  RH  085%=      5-min Rain = 0
KARS 200925Z 19005KT M04/M07 A3028 RMK A01 T10431065  RH  085%=      5-min Rain = 0
KARS 200930Z 19006KT M04/M07 A3028 RMK A01 T10441065  RH  085%=      5-min Rain = 0
KARS 200935Z 18005KT M04/M07 A3028 RMK A01 T10441065  RH  085%=      5-min Rain = 0
KARS 200940Z 18005KT M04/M06 A3028 RMK A01 T10431064  RH  085%=      5-min Rain = 0
KARS 200945Z 18005KT M04/M07 A3028 RMK A01 T10431066  RH  084%=      5-min Rain = 0
KARS 200950Z 17005KT M04/M07 A3028 RMK A01 T10431065  RH  085%=      5-min Rain = 0
KARS 200955Z 17005KT M04/M07 A3028 RMK A01 T10421065  RH  084%=      5-min Rain = 0
KARS 201000Z 17006KT M04/M07 A3028 RMK A01 T10431066  RH  084%=      5-min Rain = 0
KARS 201005Z 17006KT M04/M07 A3028 RMK A01 T10431066  RH  084%=      5-min Rain = 0
KARS 201010Z 16005KT M04/M07 A3028 RMK A01 T10421065  RH  084%=      5-min Rain = 0
KARS 201015Z 17005KT M04/M07 A3028 RMK A01 T10411066  RH  083%=      5-min Rain = 0
KARS 201020Z 17006KT M04/M07 A3028 RMK A01 T10401066  RH  083%=      5-min Rain = 0
KARS 201025Z 18006KT M04/M07 A3027 RMK A01 T10411066  RH  083%=      5-min Rain = 0
KARS 201030Z 17006KT M04/M07 A3027 RMK A01 T10421067  RH  083%=      5-min Rain = 0
KARS 201035Z 17007KT M04/M07 A3027 RMK A01 T10411067  RH  082%=      5-min Rain = 0
KARS 201040Z 17006KT M04/M07 A3027 RMK A01 T10401068  RH  081%=      5-min Rain = 0
KARS 201045Z 17006KT M04/M07 A3027 RMK A01 T10401068  RH  081%=      5-min Rain = 0
KARS 201050Z 17007KT M04/M07 A3027 RMK A01 T10401069  RH  080%=      5-min Rain = 0
KARS 201055Z 17007KT M04/M07 A3027 RMK A01 T10391069  RH  080%=      5-min Rain = 0
KARS 201100Z 17007KT M04/M07 A3027 RMK A01 T10391070  RH  079%=      5-min Rain = 0
KARS 201105Z 17008KT M04/M07 A3026 RMK A01 T10391070  RH  079%=      5-min Rain = 0
KARS 201110Z 17007KT M04/M07 A3026 RMK A01 T10391070  RH  079%=      5-min Rain = 0
KARS 201115Z 17007KT M04/M07 A3026 RMK A01 T10391071  RH  079%=      5-min Rain = 0
KARS 201120Z 17007KT M04/M07 A3026 RMK A01 T10391071  RH  079%=      5-min Rain = 0
KARS 201125Z 17006KT M04/M07 A3026 RMK A01 T10401071  RH  079%=      5-min Rain = 0
KARS 201130Z 17006KT M04/M07 A3026 RMK A01 T10421072  RH  080%=      5-min Rain = 0
KARS 201135Z 17007KT M04/M07 A3025 RMK A01 T10431072  RH  081%=      5-min Rain = 0
KARS 201140Z 18006KT M05/M07 A3025 RMK A01 T10451072  RH  081%=      5-min Rain = 0
KARS 201145Z 18006KT M05/M07 A3025 RMK A01 T10451073  RH  081%=      5-min Rain = 0
KARS 201150Z 18006KT M05/M07 A3025 RMK A01 T10451073  RH  081%=      5-min Rain = 0
KARS 201155Z 18007KT M05/M07 A3024 RMK A01 T10461073  RH  081%=      5-min Rain = 0
KARS 201200Z 18007KT M05/M07 A3024 RMK A01 T10451073  RH  081%=      5-min Rain = 0
KARS 201205Z 18007KT M05/M07 A3024 RMK A01 T10451073  RH  081%=      5-min Rain = 0
KARS 201210Z 18007KT M05/M07 A3024 RMK A01 T10451072  RH  081%=      5-min Rain = 0
KARS 201215Z 18007KT M05/M07 A3024 RMK A01 T10451072  RH  081%=      5-min Rain = 0
KARS 201220Z 18008KT M05/M07 A3024 RMK A01 T10461073  RH  082%=      5-min Rain = 0
KARS 201225Z 18007KT M05/M07 A3024 RMK A01 T10461072  RH  082%=      5-min Rain = 0
KARS 201230Z 18007KT M05/M07 A3024 RMK A01 T10461072  RH  082%=      5-min Rain = 0
KARS 201235Z 18007KT M05/M07 A3024 RMK A01 T10461072  RH  083%=      5-min Rain = 0
KARS 201240Z 18007KT M05/M07 A3024 RMK A01 T10471072  RH  083%=      5-min Rain = 0
KARS 201245Z 18007KT M05/M07 A3024 RMK A01 T10471072  RH  082%=      5-min Rain = 0
KARS 201250Z 18007KT M05/M07 A3024 RMK A01 T10451073  RH  081%=      5-min Rain = 0
KARS 201255Z 18007KT M04/M07 A3024 RMK A01 T10431073  RH  080%=      5-min Rain = 0
KARS 201300Z 19006KT M04/M07 A3024 RMK A01 T10441072  RH  080%=      5-min Rain = 0
KARS 201305Z 19006KT M05/M07 A3024 RMK A01 T10451073  RH  080%=      5-min Rain = 0
KARS 201310Z 19006KT M04/M07 A3024 RMK A01 T10441073  RH  080%=      5-min Rain = 0
KARS 201315Z 19006KT M05/M07 A3024 RMK A01 T10461073  RH  081%=      5-min Rain = 0
KARS 201320Z 19007KT M05/M07 A3024 RMK A01 T10451072  RH  081%=      5-min Rain = 0
KARS 201325Z 19006KT M05/M07 A3024 RMK A01 T10451072  RH  082%=      5-min Rain = 0
KARS 201330Z 20006KT M05/M07 A3024 RMK A01 T10461072  RH  082%=      5-min Rain = 0
KARS 201335Z 20006KT M05/M07 A3024 RMK A01 T10461071  RH  083%=      5-min Rain = 0
KARS 201340Z 20006KT M05/M07 A3024 RMK A01 T10471070  RH  084%=      5-min Rain = 0
KARS 201345Z 21007KT M05/M07 A3024 RMK A01 T10481070  RH  085%=      5-min Rain = 0
KARS 201350Z 21007KT M05/M07 A3024 RMK A01 T10491069  RH  086%=      5-min Rain = 0
KARS 201355Z 21007KT M05/M07 A3024 RMK A01 T10491069  RH  086%=      5-min Rain = 0
KARS 201400Z 20008KT M05/M07 A3024 RMK A01 T10481068  RH  086%=      5-min Rain = 0
KARS 201405Z 20008KT M05/M07 A3024 RMK A01 T10451068  RH  084%=      5-min Rain = 0
KARS 201410Z 20008KT M04/M07 A3024 RMK A01 T10431068  RH  083%=      5-min Rain = 0
KARS 201415Z 20007KT M04/M07 A3024 RMK A01 T10411067  RH  082%=      5-min Rain = 0
KARS 201420Z 20008KT M04/M07 A3024 RMK A01 T10401066  RH  082%=      5-min Rain = 0
KARS 201425Z 20008KT M04/M07 A3024 RMK A01 T10371066  RH  080%=      5-min Rain = 0
KARS 201430Z 20008KT M03/M07 A3025 RMK A01 T10341065  RH  079%=      5-min Rain = 0
KARS 201435Z 19007KT M03/M06 A3025 RMK A01 T10311063  RH  079%=      5-min Rain = 0
KARS 201440Z 19007KT M03/M06 A3025 RMK A01 T10261060  RH  078%=      5-min Rain = 0
KARS 201445Z 20007KT M02/M06 A3025 RMK A01 T10221058  RH  077%=      5-min Rain = 0
KARS 201450Z 19007KT M02/M06 A3025 RMK A01 T10191057  RH  076%=      5-min Rain = 0
KARS 201455Z 19007KT M02/M06 A3025 RMK A01 T10181056  RH  075%=      5-min Rain = 0
KARS 201500Z 20008KT M02/M06 A3024 RMK A01 T10151056  RH  074%=      5-min Rain = 0
KARS 201505Z 19007KT M01/M05 A3024 RMK A01 T10141054  RH  074%=      5-min Rain = 0
KARS 201510Z 20007KT M01/M05 A3024 RMK A01 T10131054  RH  074%=      5-min Rain = 0
KARS 201515Z 20007KT M01/M05 A3025 RMK A01 T10091052  RH  073%=      5-min Rain = 0
KARS 201520Z 19006KT M00/M05 A3025 RMK A01 T10041048  RH  072%=      5-min Rain = 0
KARS 201525Z 19008KT M00/M05 A3025 RMK A01 T10011050  RH  070%=      5-min Rain = 0
KARS 201530Z 19009KT 00/M05 A3025 RMK A01 T00011049  RH  069%=      5-min Rain = 0
KARS 201535Z 20009KT 01/M05 A3025 RMK A01 T00051047  RH  069%=      5-min Rain = 0
KARS 201540Z 20009KT 01/M05 A3025 RMK A01 T00071046  RH  068%=      5-min Rain = 0
KARS 201545Z 20011KT 01/M04 A3025 RMK A01 T00101044  RH  067%=      5-min Rain = 0
KARS 201550Z 20010KT 01/M04 A3024 RMK A01 T00131044  RH  066%=      5-min Rain = 0
KARS 201555Z 20010KT 02/M04 A3024 RMK A01 T00171042  RH  065%=      5-min Rain = 0
KARS 201600Z 20012KT 02/M04 A3024 RMK A01 T00211041  RH  064%=      5-min Rain = 0
KARS 201605Z 20012KT 03/M04 A3024 RMK A01 T00261039  RH  063%=      5-min Rain = 0
KARS 201610Z 20012KT 03/M04 A3023 RMK A01 T00301038  RH  061%=      5-min Rain = 0
KARS 201615Z 20013G18KT 04/M04 A3023 RMK A01 T00361036  RH  059%=      5-min Rain = 0
KARS 201620Z 20015KT 04/M04 A3023 RMK A01 T00421035  RH  057%=      5-min Rain = 0
KARS 201625Z 20015KT 05/M04 A3023 RMK A01 T00461035  RH  056%=      5-min Rain = 0
KARS 201630Z 20013G18KT 05/M03 A3023 RMK A01 T00511033  RH  055%=      5-min Rain = 0
KARS 201635Z 20015KT 05/M03 A3023 RMK A01 T00531034  RH  054%=      5-min Rain = 0
KARS 201640Z 20014KT 06/M03 A3022 RMK A01 T00551033  RH  053%=      5-min Rain = 0
KARS 201645Z 20015KT 06/M03 A3022 RMK A01 T00561034  RH  053%=      5-min Rain = 0
KARS 201650Z 19015KT 06/M03 A3022 RMK A01 T00591034  RH  052%=      5-min Rain = 0
KARS 201655Z 20016KT 06/M03 A3022 RMK A01 T00641033  RH  050%=      5-min Rain = 0
KARS 201700Z 21016KT 07/M04 A3022 RMK A01 T00661035  RH  049%=      5-min Rain = 0
KARS 201705Z 21015KT 07/M03 A3022 RMK A01 T00701033  RH  048%=      5-min Rain = 0
KARS 201710Z 21015G20KT 07/M03 A3022 RMK A01 T00741032  RH  047%=      5-min Rain = 0
KARS 201715Z 20015KT 08/M03 A3022 RMK A01 T00761031  RH  047%=      5-min Rain = 0
KARS 201720Z 21015KT 08/M03 A3021 RMK A01 T00771032  RH  046%=      5-min Rain = 0
KARS 201725Z 21016KT 08/M03 A3021 RMK A01 T00791032  RH  046%=      5-min Rain = 0
KARS 201730Z 21016KT 08/M03 A3021 RMK A01 T00821032  RH  045%=      5-min Rain = 0
KARS 201735Z 21016KT 09/M03 A3021 RMK A01 T00861031  RH  044%=      5-min Rain = 0
KARS 201740Z 21015G20KT 09/M03 A3021 RMK A01 T00901030  RH  043%=      5-min Rain = 0
KARS 201745Z 22015G20KT 09/M03 A302 RMK A01 T00941030  RH  042%=      5-min Rain = 0
KARS 201750Z 21016G21KT 09/M03 A302 RMK A01 T00941032  RH  041%=      5-min Rain = 0
KARS 201755Z 22016KT 09/M03 A302 RMK A01 T00931032  RH  041%=      5-min Rain = 0
KARS 201800Z 21015G20KT 10/M03 A302 RMK A01 T00971031  RH  041%=      5-min Rain = 0
KARS 201805Z 22015KT 10/M03 A3019 RMK A01 T00991032  RH  040%=      5-min Rain = 0
KARS 201810Z 22015G20KT 10/M03 A3019 RMK A01 T01021032  RH  039%=      5-min Rain = 0
KARS 201815Z 22016KT 10/M03 A3019 RMK A01 T01041033  RH  038%=      5-min Rain = 0
KARS 201820Z 22015KT 11/M03 A3018 RMK A01 T01071032  RH  038%=      5-min Rain = 0
KARS 201825Z 21014KT 11/M03 A3018 RMK A01 T01141032  RH  036%=      5-min Rain = 0
KARS 201830Z 22015KT 12/M03 A3018 RMK A01 T01161034  RH  035%=      5-min Rain = 0
KARS 201835Z 21015KT 12/M03 A3017 RMK A01 T01161034  RH  035%=      5-min Rain = 0
KARS 201840Z 21015KT 12/M04 A3016 RMK A01 T01151035  RH  035%=      5-min Rain = 0
KARS 201845Z 22014KT 11/M04 A3016 RMK A01 T01141035  RH  035%=      5-min Rain = 0
KARS 201850Z 22013KT 11/M04 A3016 RMK A01 T01141035  RH  035%=      5-min Rain = 0
KARS 201855Z 22014KT 12/M03 A3015 RMK A01 T01171034  RH  035%=      5-min Rain = 0
KARS 201900Z 22015KT 12/M04 A3015 RMK A01 T01211036  RH  033%=      5-min Rain = 0
KARS 201905Z 22015KT 12/M04 A3015 RMK A01 T01211039  RH  032%=      5-min Rain = 0
KARS 201910Z 22015KT 12/M04 A3014 RMK A01 T01201038  RH  033%=      5-min Rain = 0
KARS 201915Z 22013KT 13/M04 A3014 RMK A01 T01261035  RH  033%=      5-min Rain = 0
KARS 201920Z 21014KT 13/M04 A3014 RMK A01 T01261037  RH  032%=      5-min Rain = 0
KARS 201925Z 22014KT 13/M04 A3013 RMK A01 T01301038  RH  031%=      5-min Rain = 0
KARS 201930Z 23014KT 13/M04 A3013 RMK A01 T01331038  RH  030%=      5-min Rain = 0
KARS 201935Z 22014KT 14/M04 A3012 RMK A01 T01351038  RH  030%=      5-min Rain = 0
KARS 201940Z 22014KT 14/M04 A3012 RMK A01 T01361040  RH  029%=      5-min Rain = 0
KARS 201945Z 22014KT 13/M04 A3011 RMK A01 T01321040  RH  030%=      5-min Rain = 0
KARS 201950Z 23013KT 14/M04 A3011 RMK A01 T01361039  RH  030%=      5-min Rain = 0
KARS 201955Z 22014KT 14/M04 A3011 RMK A01 T01351040  RH  029%=      5-min Rain = 0
KARS 202000Z 22014KT 14/M04 A3011 RMK A01 T01361040  RH  029%=      5-min Rain = 0
KARS 202005Z 22013KT 14/M04 A301 RMK A01 T01391039  RH  029%=      5-min Rain = 0
KARS 202010Z 22014KT 14/M04 A301 RMK A01 T01381041  RH  029%=      5-min Rain = 0
KARS 202015Z 22014KT 14/M04 A301 RMK A01 T01411041  RH  028%=      5-min Rain = 0
KARS 202020Z 22014KT 14/M04 A301 RMK A01 T01421043  RH  027%=      5-min Rain = 0
KARS 202025Z 22013KT 14/M05 A301 RMK A01 T01431045  RH  027%=      5-min Rain = 0
KARS 202030Z 22014G19KT 14/M04 A301 RMK A01 T01431044  RH  027%=      5-min Rain = 0
KARS 202035Z 22014KT 15/M04 A3009 RMK A01 T01451044  RH  027%=      5-min Rain = 0
KARS 202040Z 22012KT 15/M04 A3009 RMK A01 T01481044  RH  026%=      5-min Rain = 0
KARS 202045Z 22014KT 15/M05 A3009 RMK A01 T01521045  RH  025%=      5-min Rain = 0
KARS 202050Z 22015KT 16/M05 A3008 RMK A01 T01551049  RH  024%=      5-min Rain = 0
KARS 202055Z 21014KT 16/M05 A3008 RMK A01 T01561048  RH  024%=      5-min Rain = 0
KARS 202100Z 22013KT 16/M05 A3008 RMK A01 T01621047  RH  024%=      5-min Rain = 0
KARS 202105Z 22014KT 17/M05 A3007 RMK A01 T01671047  RH  023%=      5-min Rain = 0
KARS 202110Z 22013KT 17/M05 A3007 RMK A01 T01711049  RH  022%=      5-min Rain = 0
KARS 202115Z 21015KT 17/M05 A3007 RMK A01 T01731051  RH  021%=      5-min Rain = 0
KARS 202120Z 22015G22KT 18/M06 A3006 RMK A01 T01751055  RH  020%=      5-min Rain = 0
KARS 202125Z 22019KT 18/M06 A3006 RMK A01 T01751060  RH  020%=      5-min Rain = 0
KARS 202130Z 22017G22KT 18/M06 A3006 RMK A01 T01751059  RH  020%=      5-min Rain = 0
KARS 202135Z 23016KT 18/M06 A3006 RMK A01 T01771058  RH  020%=      5-min Rain = 0
KARS 202140Z 23014G19KT 18/M06 A3006 RMK A01 T01781057  RH  020%=      5-min Rain = 0
KARS 202145Z 22016G21KT 18/M06 A3006 RMK A01 T01781058  RH  019%=      5-min Rain = 0
KARS 202150Z 23015KT 18/M06 A3005 RMK A01 T01781058  RH  019%=      5-min Rain = 0
KARS 202155Z 23016KT 18/M06 A3006 RMK A01 T01781059  RH  019%=      5-min Rain = 0
KARS 202200Z 22016KT 18/M06 A3006 RMK A01 T01791059  RH  019%=      5-min Rain = 0
KARS 202205Z 22014G19KT 18/M06 A3006 RMK A01 T01791058  RH  019%=      5-min Rain = 0
KARS 202210Z 22014KT 18/M06 A3006 RMK A01 T01791058  RH  019%=      5-min Rain = 0
KARS 202215Z 22015KT 18/M06 A3006 RMK A01 T01781060  RH  019%=      5-min Rain = 0
KARS 202220Z 22016G21KT 18/M06 A3006 RMK A01 T01771058  RH  020%=      5-min Rain = 0
KARS 202225Z 20016KT 17/M05 A3006 RMK A01 T01721054  RH  021%=      5-min Rain = 0
KARS 202230Z 21016KT 17/M06 A3006 RMK A01 T01701055  RH  021%=      5-min Rain = 0
KARS 202235Z 20016G21KT 17/M05 A3006 RMK A01 T01671054  RH  022%=      5-min Rain = 0
KARS 202240Z 21014G19KT 16/M05 A3006 RMK A01 T01641053  RH  022%=      5-min Rain = 0
KARS 202245Z 21014KT 16/M05 A3006 RMK A01 T01641053  RH  022%=      5-min Rain = 0
KARS 202250Z 21014KT 16/M05 A3006 RMK A01 T01591053  RH  023%=      5-min Rain = 0
KARS 202255Z 20013KT 16/M05 A3006 RMK A01 T01561052  RH  024%=      5-min Rain = 0
KARS 202300Z 20012KT 16/M05 A3006 RMK A01 T01551049  RH  024%=      5-min Rain = 0
KARS 202305Z 20013KT 16/M05 A3006 RMK A01 T01561050  RH  024%=      5-min Rain = 0
KARS 202310Z 20011KT 15/M05 A3005 RMK A01 T01531050  RH  024%=      5-min Rain = 0
KARS 202315Z 20012KT 16/M05 A3005 RMK A01 T01551050  RH  024%=      5-min Rain = 0
KARS 202320Z 20013KT 15/M05 A3005 RMK A01 T01511053  RH  024%=      5-min Rain = 0
KARS 202325Z 20012KT 15/M05 A3005 RMK A01 T01481053  RH  025%=      5-min Rain = 0
KARS 202330Z 19011KT 15/M05 A3005 RMK A01 T01451052  RH  025%=      5-min Rain = 0
KARS 202335Z 19011KT 14/M05 A3005 RMK A01 T01391052  RH  026%=      5-min Rain = 0
KARS 202340Z 19010KT 13/M05 A3004 RMK A01 T01341052  RH  027%=      5-min Rain = 0
KARS 202345Z 19009KT 13/M05 A3004 RMK A01 T01271051  RH  029%=      5-min Rain = 0
KARS 202350Z 19009KT 12/M05 A3004 RMK A01 T01221051  RH  030%=      5-min Rain = 0
KARS 202355Z 19009KT 12/M05 A3004 RMK A01 T01151051  RH  031%=      5-min Rain = 0
KARS 210000Z 19009KT 11/M05 A3004 RMK A01 T01091052  RH  032%=      5-min Rain = 0
KARS 210005Z 18008KT 11/M05 A3004 RMK A01 T01051053  RH  033%=      5-min Rain = 0
KARS 210010Z 19008KT 10/M06 A3004 RMK A01 T00981055  RH  034%=      5-min Rain = 0
KARS 210015Z 19008KT 09/M06 A3004 RMK A01 T00901055  RH  035%=      5-min Rain = 0
KARS 210020Z 19008KT 08/M06 A3004 RMK A01 T00821055  RH  037%=      5-min Rain = 0
KARS 210025Z 19008KT 08/M06 A3004 RMK A01 T00761055  RH  039%=      5-min Rain = 0
KARS 210030Z 19009KT 07/M06 A3004 RMK A01 T00721056  RH  040%=      5-min Rain = 0
KARS 210035Z 19009KT 07/M05 A3004 RMK A01 T00721054  RH  040%=      5-min Rain = 0
KARS 210040Z 19009KT 07/M06 A3004 RMK A01 T00681055  RH  041%=      5-min Rain = 0
KARS 210045Z 19009KT 07/M06 A3004 RMK A01 T00671056  RH  041%=      5-min Rain = 0
KARS 210050Z 19009KT 07/M06 A3004 RMK A01 T00691056  RH  041%=      5-min Rain = 0
KARS 210055Z 19009KT 07/M06 A3004 RMK A01 T00691057  RH  040%=      5-min Rain = 0
KARS 210100Z 18008KT 07/M06 A3004 RMK A01 T00651059  RH  041%=      5-min Rain = 0
KARS 210105Z 18009KT 06/M06 A3004 RMK A01 T00621061  RH  041%=      5-min Rain = 0
KARS 210110Z 18008KT 06/M06 A3004 RMK A01 T00611062  RH  041%=      5-min Rain = 0
KARS 210115Z 18009KT 06/M06 A3004 RMK A01 T00611062  RH  041%=      5-min Rain = 0
KARS 210120Z 18009KT 06/M06 A3004 RMK A01 T00601061  RH  042%=      5-min Rain = 0
KARS 210125Z 19009KT 06/M06 A3004 RMK A01 T00591062  RH  042%=      5-min Rain = 0
KARS 210130Z 19008KT 06/M06 A3003 RMK A01 T00571063  RH  042%=      5-min Rain = 0
KARS 210135Z 18009KT 06/M06 A3003 RMK A01 T00591062  RH  041%=      5-min Rain = 0
KARS 210140Z 18008KT 06/M06 A3003 RMK A01 T00621061  RH  041%=      5-min Rain = 0
KARS 210145Z 18008KT 06/M06 A3003 RMK A01 T00611062  RH  041%=      5-min Rain = 0
KARS 210150Z 19008KT 06/M06 A3003 RMK A01 T00571063  RH  042%=      5-min Rain = 0
KARS 210155Z 19008KT 05/M06 A3003 RMK A01 T00531064  RH  043%=      5-min Rain = 0
KARS 210200Z 18009KT 05/M06 A3003 RMK A01 T00541064  RH  043%=      5-min Rain = 0
KARS 210205Z 18009KT 06/M06 A3003 RMK A01 T00561063  RH  042%=      5-min Rain = 0
KARS 210210Z 18009KT 06/M06 A3003 RMK A01 T00551062  RH  043%=      5-min Rain = 0
KARS 210215Z 18008KT 05/M06 A3003 RMK A01 T00521063  RH  044%=      5-min Rain = 0
KARS 210220Z 18007KT 05/M06 A3003 RMK A01 T00481063  RH  045%=      5-min Rain = 0
KARS 210225Z 18008KT 04/M06 A3003 RMK A01 T00441063  RH  046%=      5-min Rain = 0
KARS 210230Z 18008KT 04/M06 A3003 RMK A01 T00401063  RH  047%=      5-min Rain = 0
KARS 210235Z 18009KT 04/M06 A3002 RMK A01 T00391062  RH  048%=      5-min Rain = 0
KARS 210240Z 18008KT 03/M06 A3002 RMK A01 T00321063  RH  050%=      5-min Rain = 0
KARS 210245Z 18008KT 03/M06 A3002 RMK A01 T00271063  RH  052%=      5-min Rain = 0
KARS 210250Z 18008KT 03/M06 A3002 RMK A01 T00261063  RH  052%=      5-min Rain = 0
KARS 210255Z 18008KT 03/M06 A3002 RMK A01 T00261062  RH  052%=      5-min Rain = 0
KARS 210300Z 18008KT 03/M06 A3002 RMK A01 T00291062  RH  052%=      5-min Rain = 0
KARS 210305Z 18009KT 03/M06 A3002 RMK A01 T00271062  RH  052%=      5-min Rain = 0
KARS 210310Z 18009KT 03/M06 A3001 RMK A01 T00251062  RH  053%=      5-min Rain = 0
KARS 210315Z 18008KT 03/M06 A3001 RMK A01 T00251062  RH  053%=      5-min Rain = 0
KARS 210320Z 18008KT 03/M06 A3001 RMK A01 T00251062  RH  053%=      5-min Rain = 0
KARS 210325Z 18008KT 02/M06 A3001 RMK A01 T00241062  RH  053%=      5-min Rain = 0
KARS 210330Z 18008KT 02/M06 A3001 RMK A01 T00241062  RH  053%=      5-min Rain = 0
KARS 210335Z 19008KT 03/M06 A30 RMK A01 T00251062  RH  053%=      5-min Rain = 0
KARS 210340Z 19008KT 03/M06 A30 RMK A01 T00261062  RH  052%=      5-min Rain = 0
KARS 210345Z 19008KT 03/M06 A30 RMK A01 T00271062  RH  052%=      5-min Rain = 0
KARS 210350Z 19007KT 03/M06 A30 RMK A01 T00261062  RH  052%=      5-min Rain = 0
KARS 210355Z 19007KT 03/M06 A30 RMK A01 T00261062  RH  052%=      5-min Rain = 0
KARS 210400Z 19008KT 02/M06 A30 RMK A01 T00231063  RH  053%=      5-min Rain = 0
KARS 210405Z 19008KT 02/M06 A30 RMK A01 T00191064  RH  054%=      5-min Rain = 0
KARS 210410Z 18008KT 02/M06 A30 RMK A01 T00161064  RH  055%=      5-min Rain = 0
KARS 210415Z 18008KT 02/M06 A30 RMK A01 T00201062  RH  055%=      5-min Rain = 0
KARS 210420Z 19007KT 02/M06 A30 RMK A01 T00221060  RH  054%=      5-min Rain = 0
KARS 210425Z 19006KT 02/M06 A30 RMK A01 T00191062  RH  055%=      5-min Rain = 0
KARS 210430Z 19007KT 02/M06 A30 RMK A01 T00181063  RH  055%=      5-min Rain = 0
KARS 210435Z 20007KT 02/M06 A30 RMK A01 T00151062  RH  057%=      5-min Rain = 0
KARS 210440Z 21007KT 01/M06 A30 RMK A01 T00091063  RH  059%=      5-min Rain = 0
KARS 210445Z 21009KT 01/M06 A30 RMK A01 T00111059  RH  060%=      5-min Rain = 0
KARS 210450Z 22009KT 02/M06 A3001 RMK A01 T00171058  RH  057%=      5-min Rain = 0
KARS 210455Z 22009KT 02/M06 A3001 RMK A01 T00191056  RH  057%=      5-min Rain = 0
KARS 210500Z 22010KT 03/M05 A3001 RMK A01 T00261053  RH  056%=      5-min Rain = 0
KARS 210505Z 22010KT 03/M05 A3001 RMK A01 T00321050  RH  055%=      5-min Rain = 0
KARS 210510Z 21010KT 03/M05 A30 RMK A01 T00341047  RH  056%=      5-min Rain = 0
KARS 210515Z 21010KT 03/M05 A30 RMK A01 T00341045  RH  057%=      5-min Rain = 0
KARS 210520Z 21010KT 03/M05 A30 RMK A01 T00331045  RH  057%=      5-min Rain = 0
KARS 210525Z 21010KT 04/M04 A30 RMK A01 T00351042  RH  057%=      5-min Rain = 0
KARS 210530Z 21010KT 04/M04 A30 RMK A01 T00391039  RH  057%=      5-min Rain = 0
KARS 210535Z 21010KT 04/M04 A30 RMK A01 T00401037  RH  058%=      5-min Rain = 0
KARS 210540Z 21010KT 04/M04 A30 RMK A01 T00411035  RH  058%=      5-min Rain = 0
KARS 210545Z 21010KT 04/M03 A30 RMK A01 T00411034  RH  058%=      5-min Rain = 0
KARS 210550Z 21010KT 04/M03 A30 RMK A01 T00391034  RH  059%=      5-min Rain = 0
KARS 210555Z 21010KT 04/M03 A30 RMK A01 T00381034  RH  060%=      5-min Rain = 0

Page generated in 0.0093 seconds.